createdAt,value
2023-04-23T00:00:12.477Z,93520.34
2023-04-23T00:02:44.352Z,93522.03
2023-04-23T00:05:13.316Z,93513.84
2023-04-23T00:07:42.584Z,93517.41
2023-04-23T00:10:11.098Z,93522.03
2023-04-23T00:12:39.651Z,93517.50
2023-04-23T00:15:08.350Z,93519.72
2023-04-23T00:17:36.230Z,93513.63
2023-04-23T00:20:04.418Z,93515.25
2023-04-23T00:22:32.403Z,93518.13
2023-04-23T00:25:00.195Z,93522.66
2023-04-23T00:27:28.154Z,93510.19
2023-04-23T00:29:56.079Z,93524.59
2023-04-23T00:32:24.012Z,93517.56
2023-04-23T00:34:52.516Z,93516.31
2023-04-23T00:37:20.409Z,93518.84
2023-04-23T00:39:48.709Z,93516.19
2023-04-23T00:42:17.395Z,93515.97
2023-04-23T00:44:45.436Z,93519.75
2023-04-23T00:47:15.450Z,93522.88
2023-04-23T00:49:43.572Z,93517.69
2023-04-23T00:52:11.408Z,93524.16
2023-04-23T00:54:39.413Z,93524.13
2023-04-23T00:57:08.288Z,93520.00
2023-04-23T00:59:36.480Z,93521.72
2023-04-23T01:02:04.457Z,93520.78
2023-04-23T01:04:33.336Z,93520.69
2023-04-23T01:07:01.957Z,93525.19
2023-04-23T01:09:30.202Z,93521.72
2023-04-23T01:11:58.656Z,93521.84
2023-04-23T01:14:26.750Z,93518.03
2023-04-23T01:16:55.046Z,93521.38
2023-04-23T01:19:23.111Z,93516.75
2023-04-23T01:21:51.515Z,93512.94
2023-04-23T01:24:19.437Z,93515.03
2023-04-23T01:26:47.348Z,93512.38
2023-04-23T01:29:18.639Z,93514.00
2023-04-23T01:31:47.512Z,93511.13
2023-04-23T01:34:15.942Z,93520.69
2023-04-23T01:36:45.729Z,93519.28
2023-04-23T01:39:14.027Z,93518.69
2023-04-23T01:41:42.099Z,93523.44
2023-04-23T01:44:10.934Z,93526.31
2023-04-23T01:46:39.064Z,93517.44
2023-04-23T01:49:07.165Z,93528.75
2023-04-23T01:51:36.017Z,93531.31
2023-04-23T01:54:04.106Z,93529.56
2023-04-23T01:56:34.092Z,93523.78
2023-04-23T01:59:02.768Z,93529.56
2023-04-23T02:01:47.604Z,93530.47
2023-04-23T02:04:17.064Z,93521.47
2023-04-23T02:06:49.596Z,93528.63
2023-04-23T02:09:17.607Z,93526.19
2023-04-23T02:11:45.590Z,93525.31
2023-04-23T02:14:14.068Z,93514.34
2023-04-23T02:16:42.509Z,93526.00
2023-04-23T02:19:10.415Z,93527.38
2023-04-23T02:21:38.356Z,93518.72
2023-04-23T02:24:07.254Z,93521.25
2023-04-23T02:26:35.328Z,93525.16
2023-04-23T02:29:03.596Z,93514.94
2023-04-23T02:31:31.821Z,93508.47
2023-04-23T02:34:00.968Z,93526.91
2023-04-23T02:36:31.316Z,93523.69
2023-04-23T02:38:59.270Z,93519.44
2023-04-23T02:41:27.463Z,93522.88
2023-04-23T02:43:55.591Z,93520.13
2023-04-23T02:46:23.650Z,93527.59
2023-04-23T02:48:51.511Z,93523.22
2023-04-23T02:51:19.598Z,93525.88
2023-04-23T02:55:25.951Z,93521.38
2023-04-23T02:57:54.007Z,93527.94
2023-04-23T03:00:22.127Z,93530.59
2023-04-23T03:02:50.778Z,93523.56
2023-04-23T03:05:18.949Z,93528.75
2023-04-23T03:07:46.873Z,93533.47
2023-04-23T03:10:14.841Z,93531.19
2023-04-23T03:12:43.223Z,93529.91
2023-04-23T03:15:11.871Z,93534.19
2023-04-23T03:17:40.348Z,93533.25
2023-04-23T03:20:10.698Z,93536.38
2023-04-23T03:22:39.714Z,93537.97
2023-04-23T03:25:09.455Z,93541.66
2023-04-23T03:27:42.961Z,93541.91
2023-04-23T03:30:12.019Z,93540.25
2023-04-23T03:32:40.205Z,93543.03
2023-04-23T03:35:09.802Z,93548.09
2023-04-23T03:37:40.577Z,93539.94
2023-04-23T03:40:09.460Z,93536.34
2023-04-23T03:42:40.541Z,93543.38
2023-04-23T03:45:09.772Z,93544.19
2023-04-23T03:47:37.738Z,93547.28
2023-04-23T03:50:07.995Z,93548.53
2023-04-23T03:52:36.418Z,93550.75
2023-04-23T03:55:05.000Z,93554.31
2023-04-23T03:57:39.760Z,93549.72
2023-04-23T04:00:26.776Z,93559.94
2023-04-23T04:02:55.064Z,93548.28
2023-04-23T04:05:25.843Z,93561.47
2023-04-23T04:07:55.976Z,93564.19
2023-04-23T04:10:26.528Z,93566.41
2023-04-23T04:12:55.575Z,93570.47
2023-04-23T04:15:23.865Z,93572.78
2023-04-23T04:17:52.028Z,93579.13
2023-04-23T04:20:20.051Z,93580.28
2023-04-23T04:22:48.433Z,93585.00
2023-04-23T04:25:16.422Z,93579.19
2023-04-23T04:27:44.703Z,93585.88
2023-04-23T04:30:12.926Z,93589.69
2023-04-23T04:32:42.389Z,93575.88
2023-04-23T04:35:10.586Z,93587.88
2023-04-23T04:37:38.686Z,93584.81
2023-04-23T04:40:08.220Z,93589.44
2023-04-23T04:42:36.605Z,93587.09
2023-04-23T04:45:04.866Z,93589.44
2023-04-23T04:47:32.975Z,93585.78
2023-04-23T04:50:00.974Z,93590.09
2023-04-23T04:52:29.084Z,93596.50
2023-04-23T04:54:57.068Z,93598.72
2023-04-23T04:57:25.120Z,93594.25
2023-04-23T04:59:54.080Z,93594.97
2023-04-23T05:02:23.574Z,93594.13
2023-04-23T05:04:52.708Z,93600.25
2023-04-23T05:07:20.696Z,93600.72
2023-04-23T05:09:48.854Z,93596.13
2023-04-23T05:12:16.763Z,93600.84
2023-04-23T05:14:44.678Z,93603.16
2023-04-23T05:17:13.815Z,93599.91
2023-04-23T05:19:41.600Z,93605.44
2023-04-23T05:22:09.580Z,93604.53
2023-04-23T05:24:37.476Z,93600.72
2023-04-23T05:27:05.643Z,93602.44
2023-04-23T05:29:33.821Z,93596.97
2023-04-23T05:32:01.929Z,93591.50
2023-04-23T05:34:29.923Z,93594.72
2023-04-23T05:36:57.968Z,93577.97
2023-04-23T05:39:26.427Z,93591.72
2023-04-23T05:41:54.417Z,93591.16
2023-04-23T05:44:22.683Z,93581.28
2023-04-23T05:46:50.660Z,93583.75
2023-04-23T05:49:19.247Z,93580.25
2023-04-23T05:51:47.404Z,93580.16
2023-04-23T05:54:15.323Z,93586.00
2023-04-23T05:56:43.361Z,93582.84
2023-04-23T05:59:11.528Z,93581.16
2023-04-23T06:01:39.558Z,93582.97
2023-04-23T06:04:08.992Z,93576.03
2023-04-23T06:06:37.328Z,93575.63
2023-04-23T06:09:05.972Z,93574.72
2023-04-23T06:11:35.999Z,93564.19
2023-04-23T06:14:04.801Z,93557.31
2023-04-23T06:16:32.875Z,93526.06
2023-04-23T06:19:00.793Z,93552.84
2023-04-23T06:21:29.080Z,93558.47
2023-04-23T06:23:57.180Z,93557.88
2023-04-23T06:26:25.203Z,93562.09
2023-04-23T06:28:56.674Z,93548.97
2023-04-23T06:31:30.858Z,93552.84
2023-04-23T06:33:58.904Z,93552.16
2023-04-23T06:36:27.287Z,93539.91
2023-04-23T06:38:55.985Z,93539.00
2023-04-23T06:41:24.465Z,93545.25
2023-04-23T06:44:06.574Z,93538.72
2023-04-23T06:46:42.268Z,93542.22
2023-04-23T06:49:11.266Z,93542.81
2023-04-23T06:51:39.770Z,93538.03
2023-04-23T06:54:08.253Z,93547.78
2023-04-23T06:56:36.209Z,93546.81
2023-04-23T06:59:04.469Z,93545.25
2023-04-23T07:01:35.638Z,93543.41
2023-04-23T07:04:04.385Z,93531.41
2023-04-23T07:06:35.000Z,93538.53
2023-04-23T07:09:03.516Z,93535.41
2023-04-23T07:11:35.124Z,93540.09
2023-04-23T07:14:04.166Z,93532.25
2023-04-23T07:16:34.255Z,93536.38
2023-04-23T07:19:02.904Z,93542.31
2023-04-23T07:21:31.421Z,93527.31
2023-04-23T07:24:00.954Z,93534.59
2023-04-23T07:26:29.530Z,93527.97
2023-04-23T07:28:58.098Z,93523.41
2023-04-23T07:31:26.864Z,93523.84
2023-04-23T07:33:56.709Z,93521.78
2023-04-23T07:36:25.130Z,93521.31
2023-04-23T07:38:53.580Z,93531.25
2023-04-23T07:41:22.184Z,93530.50
2023-04-23T07:43:50.370Z,93531.47
2023-04-23T07:46:18.771Z,93515.28
2023-04-23T07:48:47.499Z,93527.56
2023-04-23T07:51:16.736Z,93526.47
2023-04-23T07:53:44.749Z,93526.13
2023-04-23T07:56:13.429Z,93526.59
2023-04-23T07:58:41.789Z,93520.91
2023-04-23T08:01:10.363Z,93522.50
2023-04-23T08:03:38.463Z,93525.34
2023-04-23T08:06:07.043Z,93527.03
2023-04-23T08:08:34.852Z,93521.38
2023-04-23T08:11:03.318Z,93524.09
2023-04-23T08:13:31.809Z,93518.28
2023-04-23T08:16:03.326Z,93527.25
2023-04-23T08:18:32.985Z,93515.91
2023-04-23T08:21:01.832Z,93518.81
2023-04-23T08:23:33.288Z,93511.97
2023-04-23T08:26:03.197Z,93502.47
2023-04-23T08:28:31.692Z,93514.44
2023-04-23T08:31:09.451Z,93508.56
2023-04-23T08:33:44.066Z,93497.53
2023-04-23T08:36:12.513Z,93503.88
2023-04-23T08:38:40.789Z,93502.47
2023-04-23T08:41:11.024Z,93503.84
2023-04-23T08:43:48.399Z,93496.25
2023-04-23T08:46:19.627Z,93504.28
2023-04-23T08:48:51.062Z,93502.41
2023-04-23T08:51:21.938Z,93503.13
2023-04-23T08:53:56.588Z,93489.53
2023-04-23T08:56:25.806Z,93490.34
2023-04-23T08:58:56.984Z,93485.81
2023-04-23T09:01:26.345Z,93492.44
2023-04-23T09:03:55.051Z,93487.00
2023-04-23T09:06:23.458Z,93486.63
2023-04-23T09:08:53.743Z,93480.88
2023-04-23T09:11:24.414Z,93478.47
2023-04-23T09:13:52.767Z,93468.34
2023-04-23T09:16:21.358Z,93479.16
2023-04-23T09:18:51.837Z,93476.53
2023-04-23T09:21:21.845Z,93469.16
2023-04-23T09:23:53.040Z,93464.78
2023-04-23T09:26:24.930Z,93469.91
2023-04-23T09:28:53.457Z,93466.66
2023-04-23T09:31:23.261Z,93461.63
2023-04-23T09:33:53.876Z,93461.03
2023-04-23T09:36:25.122Z,93465.59
2023-04-23T09:38:57.977Z,93458.28
2023-04-23T09:41:28.289Z,93459.50
2023-04-23T09:43:58.037Z,93454.81
2023-04-23T09:46:43.840Z,93455.88
2023-04-23T09:49:13.561Z,93447.47
2023-04-23T09:51:48.346Z,93448.53
2023-04-23T09:54:23.100Z,93442.56
2023-04-23T09:56:54.199Z,93438.34
2023-04-23T09:59:46.672Z,93442.78
2023-04-23T10:02:15.033Z,93439.97
2023-04-23T10:04:43.670Z,93438.16
2023-04-23T10:07:20.048Z,93438.75
2023-04-23T10:09:49.048Z,93436.16
2023-04-23T10:12:36.924Z,93442.19
2023-04-23T10:15:08.488Z,93438.22
2023-04-23T10:17:38.040Z,93436.44
2023-04-23T10:20:08.703Z,93434.03
2023-04-23T10:22:39.316Z,93416.84
2023-04-23T10:25:12.420Z,93415.03
2023-04-23T10:27:52.680Z,93405.78
2023-04-23T10:30:23.482Z,93401.66
2023-04-23T10:32:52.198Z,93410.28
2023-04-23T10:35:20.716Z,93412.25
2023-04-23T10:37:49.320Z,93414.88
2023-04-23T10:40:24.781Z,93419.69
2023-04-23T10:42:53.960Z,93417.22
2023-04-23T10:45:25.371Z,93406.31
2023-04-23T10:47:57.811Z,93408.31
2023-04-23T10:50:30.704Z,93412.34
2023-04-23T10:52:59.668Z,93409.06
2023-04-23T10:55:32.847Z,93408.09
2023-04-23T10:58:06.800Z,93407.19
2023-04-23T11:00:46.209Z,93410.41
2023-04-23T11:03:43.223Z,93409.69
2023-04-23T11:06:40.473Z,93392.56
2023-04-23T11:09:43.059Z,93398.56
2023-04-23T11:12:32.748Z,93396.31
2023-04-23T11:15:15.280Z,93402.47
2023-04-23T11:17:47.904Z,93398.00
2023-04-23T11:20:21.176Z,93395.03
2023-04-23T11:22:51.252Z,93393.38
2023-04-23T11:25:30.772Z,93395.31
2023-04-23T11:27:59.389Z,93389.72
2023-04-23T11:30:29.020Z,93390.25
2023-04-23T11:33:00.629Z,93394.69
2023-04-23T11:35:30.803Z,93384.25
2023-04-23T11:37:59.326Z,93383.91
2023-04-23T11:40:31.332Z,93386.97
2023-04-23T11:42:59.821Z,93371.25
2023-04-23T11:45:29.977Z,93370.78
2023-04-23T11:48:01.316Z,93368.69
2023-04-23T11:50:33.594Z,93359.69
2023-04-23T11:53:12.282Z,93361.22
2023-04-23T11:55:46.144Z,93357.25
2023-04-23T11:58:18.640Z,93348.63
2023-04-23T12:00:47.083Z,93355.75
2023-04-23T12:03:16.884Z,93344.09
2023-04-23T12:05:46.548Z,93332.81
2023-04-23T12:08:19.260Z,93338.59
2023-04-23T12:10:53.459Z,93331.75
2023-04-23T12:16:06.790Z,93332.09
2023-04-23T12:18:42.674Z,93333.34
2023-04-23T12:21:13.724Z,93321.53
2023-04-23T12:23:45.372Z,93332.31
2023-04-23T12:26:15.718Z,93320.41
2023-04-23T12:29:01.820Z,93310.03
2023-04-23T12:31:30.629Z,93316.94
2023-04-23T12:34:07.222Z,93304.88
2023-04-23T12:36:36.699Z,93311.97
2023-04-23T12:39:26.448Z,93308.50
2023-04-23T12:41:58.243Z,93307.88
2023-04-23T12:44:27.088Z,93303.13
2023-04-23T12:47:00.858Z,93311.50
2023-04-23T12:49:30.162Z,93299.53
2023-04-23T12:52:03.992Z,93303.63
2023-04-23T12:54:40.050Z,93302.66
2023-04-23T12:57:14.596Z,93303.34
2023-04-23T12:59:43.181Z,93310.88
2023-04-23T13:02:11.917Z,93309.47
2023-04-23T13:04:40.598Z,93308.81
2023-04-23T13:07:09.855Z,93304.84
2023-04-23T13:09:38.371Z,93308.69
2023-04-23T13:12:06.814Z,93310.94
2023-04-23T13:14:35.448Z,93310.81
2023-04-23T13:17:04.353Z,93312.72
2023-04-23T13:19:34.440Z,93310.38
2023-04-23T13:22:05.101Z,93317.28
2023-04-23T13:24:34.134Z,93323.59
2023-04-23T13:27:02.526Z,93325.72
2023-04-23T13:29:31.032Z,93322.41
2023-04-23T13:31:59.749Z,93321.16
2023-04-23T13:34:28.283Z,93320.81
2023-04-23T13:36:57.444Z,93315.28
2023-04-23T13:39:25.863Z,93313.00
2023-04-23T13:44:28.276Z,93305.25
2023-04-23T13:46:58.926Z,93299.94
2023-04-23T13:49:28.069Z,93289.09
2023-04-23T13:52:00.586Z,93291.84
2023-04-23T13:54:29.851Z,93299.53
2023-04-23T13:56:58.547Z,93288.38
2023-04-23T13:59:27.417Z,93272.81
2023-04-23T14:01:55.900Z,93288.00
2023-04-23T14:04:24.672Z,93262.22
2023-04-23T14:06:53.311Z,93287.16
2023-04-23T14:09:22.870Z,93289.19
2023-04-23T14:11:52.390Z,93281.34
2023-04-23T14:14:20.731Z,93274.84
2023-04-23T14:16:49.224Z,93285.66
2023-04-23T14:19:17.648Z,93275.16
2023-04-23T14:21:45.888Z,93280.59
2023-04-23T14:24:39.293Z,93277.78
2023-04-23T14:27:07.986Z,93271.50
2023-04-23T14:29:40.964Z,93281.19
2023-04-23T14:32:10.078Z,93280.41
2023-04-23T14:34:38.863Z,93269.06
2023-04-23T14:37:07.685Z,93272.22
2023-04-23T14:39:36.053Z,93255.81
2023-04-23T14:42:04.542Z,93263.69
2023-04-23T14:44:33.248Z,93272.56
2023-04-23T14:47:01.502Z,93262.41
2023-04-23T14:49:29.967Z,93265.38
2023-04-23T14:51:58.473Z,93270.97
2023-04-23T14:54:26.935Z,93264.72
2023-04-23T14:56:55.428Z,93271.34
2023-04-23T14:59:24.412Z,93266.72
2023-04-23T15:01:52.797Z,93273.19
2023-04-23T15:04:21.421Z,93265.00
2023-04-23T15:06:49.970Z,93273.31
2023-04-23T15:09:18.056Z,93266.91
2023-04-23T15:11:46.472Z,93271.50
2023-04-23T15:14:26.328Z,93269.53
2023-04-23T15:16:54.978Z,93267.00
2023-04-23T15:19:23.559Z,93280.63
2023-04-23T15:21:51.943Z,93280.44
2023-04-23T15:24:20.689Z,93279.38
2023-04-23T15:26:49.977Z,93286.50
2023-04-23T15:29:19.580Z,93284.91
2023-04-23T15:31:48.257Z,93289.50
2023-04-23T15:34:16.503Z,93294.47
2023-04-23T15:36:44.931Z,93290.06
2023-04-23T15:39:13.419Z,93288.72
2023-04-23T15:41:43.541Z,93291.72
2023-04-23T15:44:14.479Z,93287.66
2023-04-23T15:46:42.873Z,93286.47
2023-04-23T15:49:11.230Z,93278.94
2023-04-23T15:51:39.677Z,93296.56
2023-04-23T15:54:08.959Z,93284.97
2023-04-23T15:56:37.867Z,93283.44
2023-04-23T15:59:06.787Z,93289.78
2023-04-23T16:01:36.493Z,93284.34
2023-04-23T16:04:11.023Z,93280.00
2023-04-23T16:06:41.108Z,93282.78
2023-04-23T16:09:09.491Z,93290.13
2023-04-23T16:11:38.690Z,93295.78
2023-04-23T16:14:09.582Z,93283.28
2023-04-23T16:16:39.199Z,93285.72
2023-04-23T16:19:08.001Z,93284.47
2023-04-23T16:21:36.435Z,93288.00
2023-04-23T16:24:05.379Z,93286.06
2023-04-23T16:26:34.451Z,93292.09
2023-04-23T16:29:16.690Z,93285.63
2023-04-23T16:31:51.089Z,93289.09
2023-04-23T16:34:19.543Z,93289.19
2023-04-23T16:36:48.100Z,93288.09
2023-04-23T16:39:16.778Z,93282.75
2023-04-23T16:41:45.278Z,93287.50
2023-04-23T16:44:13.980Z,93281.75
2023-04-23T16:46:42.423Z,93280.66
2023-04-23T16:49:11.159Z,93279.28
2023-04-23T16:51:39.557Z,93276.59
2023-04-23T16:54:08.217Z,93267.44
2023-04-23T16:56:37.124Z,93288.91
2023-04-23T16:59:06.084Z,93279.22
2023-04-23T17:01:34.474Z,93275.41
2023-04-23T17:04:03.535Z,93284.28
2023-04-23T17:06:33.207Z,93283.75
2023-04-23T17:09:04.440Z,93284.00
2023-04-23T17:11:32.756Z,93289.31
2023-04-23T17:14:01.122Z,93290.00
2023-04-23T17:16:29.770Z,93278.94
2023-04-23T17:18:58.475Z,93301.44
2023-04-23T17:21:27.749Z,93290.50
2023-04-23T17:23:56.460Z,93298.56
2023-04-23T17:26:24.900Z,93300.31
2023-04-23T17:28:53.490Z,93303.31
2023-04-23T17:31:22.115Z,93308.34
2023-04-23T17:33:50.796Z,93307.31
2023-04-23T17:36:19.702Z,93308.13
2023-04-23T17:38:48.172Z,93311.97
2023-04-23T17:41:18.019Z,93313.66
2023-04-23T17:43:46.839Z,93322.88
2023-04-23T17:46:15.209Z,93282.75
2023-04-23T17:48:43.875Z,93319.13
2023-04-23T17:51:12.264Z,93321.53
2023-04-23T17:53:42.639Z,93320.53
2023-04-23T17:56:11.306Z,93330.41
2023-04-23T17:58:40.098Z,93333.41
2023-04-23T18:01:09.933Z,93336.91
2023-04-23T18:03:38.729Z,93349.44
2023-04-23T18:06:08.807Z,93351.03
2023-04-23T18:08:38.995Z,93341.69
2023-04-23T18:11:09.086Z,93352.91
2023-04-23T18:13:37.987Z,93349.44
2023-04-23T18:16:06.464Z,93366.03
2023-04-23T18:18:35.000Z,93363.88
2023-04-23T18:21:04.924Z,93370.81
2023-04-23T18:23:36.222Z,93363.56
2023-04-23T18:26:04.855Z,93359.78
2023-04-23T18:28:35.323Z,93374.75
2023-04-23T18:31:04.886Z,93365.13
2023-04-23T18:33:58.942Z,93368.88
2023-04-23T18:36:34.397Z,93378.09
2023-04-23T18:39:03.384Z,93380.06
2023-04-23T18:41:32.248Z,93384.81
2023-04-23T18:44:00.612Z,93386.66
2023-04-23T18:46:31.617Z,93384.28
2023-04-23T18:49:26.694Z,93385.56
2023-04-23T18:51:55.717Z,93376.78
2023-04-23T18:54:25.889Z,93389.13
2023-04-23T18:56:54.459Z,93388.03
2023-04-23T18:59:23.007Z,93398.91
2023-04-23T19:01:52.495Z,93383.38
2023-04-23T19:04:21.599Z,93398.63
2023-04-23T19:06:50.194Z,93401.19
2023-04-23T19:09:18.563Z,93398.00
2023-04-23T19:11:47.010Z,93399.28
2023-04-23T19:14:16.644Z,93397.09
2023-04-23T19:16:45.908Z,93401.09
2023-04-23T19:19:14.398Z,93398.34
2023-04-23T19:21:42.901Z,93398.31
2023-04-23T19:24:11.391Z,93399.81
2023-04-23T19:26:39.925Z,93400.84
2023-04-23T19:29:08.672Z,93391.72
2023-04-23T19:31:37.260Z,93398.34
2023-04-23T19:34:05.643Z,93395.34
2023-04-23T19:36:34.160Z,93392.88
2023-04-23T19:39:04.950Z,93399.78
2023-04-23T19:41:33.857Z,93399.44
2023-04-23T19:44:02.501Z,93401.50
2023-04-23T19:46:31.073Z,93401.72
2023-04-23T19:48:59.971Z,93405.63
2023-04-23T19:51:33.230Z,93398.09
2023-04-23T19:54:02.683Z,93400.75
2023-04-23T19:56:31.372Z,93393.44
2023-04-23T19:58:59.480Z,93405.69
2023-04-23T20:01:28.446Z,93395.59
2023-04-23T20:03:57.003Z,93389.72
2023-04-23T20:06:25.387Z,93390.47
2023-04-23T20:09:18.455Z,93394.13
2023-04-23T20:11:47.921Z,93396.06
2023-04-23T20:14:16.252Z,93398.19
2023-04-23T20:16:44.878Z,93399.59
2023-04-23T20:19:14.506Z,93403.31
2023-04-23T20:21:46.216Z,93393.06
2023-04-23T20:24:15.392Z,93397.88
2023-04-23T20:26:43.482Z,93399.19
2023-04-23T20:29:11.852Z,93404.78
2023-04-23T20:31:40.086Z,93402.63
2023-04-23T20:34:08.569Z,93402.13
2023-04-23T20:36:38.969Z,93406.09
2023-04-23T20:39:08.561Z,93405.53
2023-04-23T20:41:36.932Z,93408.03
2023-04-23T20:44:05.374Z,93408.22
2023-04-23T20:46:33.899Z,93404.59
2023-04-23T20:49:03.533Z,93410.25
2023-04-23T20:51:35.672Z,93414.44
2023-04-23T20:54:05.515Z,93407.50
2023-04-23T20:56:33.803Z,93409.28
2023-04-23T20:59:01.700Z,93402.53
2023-04-23T21:01:30.229Z,93399.97
2023-04-23T21:04:00.736Z,93395.28
2023-04-23T21:06:31.446Z,93398.75
2023-04-23T21:08:59.739Z,93397.72
2023-04-23T21:11:27.976Z,93403.19
2023-04-23T21:13:56.354Z,93398.44
2023-04-23T21:16:24.568Z,93399.06
2023-04-23T21:18:52.571Z,93408.16
2023-04-23T21:21:20.846Z,93414.44
2023-04-23T21:23:48.801Z,93416.63
2023-04-23T21:26:16.870Z,93417.75
2023-04-23T21:28:44.873Z,93397.25
2023-04-23T21:31:17.964Z,93416.03
2023-04-23T21:33:46.070Z,93409.22
2023-04-23T21:36:14.065Z,93405.66
2023-04-23T21:38:42.133Z,93407.53
2023-04-23T21:41:10.071Z,93409.31
2023-04-23T21:43:38.607Z,93401.41
2023-04-23T21:46:07.491Z,93403.09
2023-04-23T21:48:35.817Z,93394.84
2023-04-23T21:51:03.781Z,93407.88
2023-04-23T21:53:31.714Z,93409.84
2023-04-23T21:55:59.685Z,93407.50
2023-04-23T21:58:28.184Z,93411.06
2023-04-23T22:00:56.388Z,93405.50
2023-04-23T22:03:35.520Z,93408.47
2023-04-23T22:06:08.311Z,93415.16
2023-04-23T22:08:38.386Z,93376.06
2023-04-23T22:11:08.228Z,93422.03
2023-04-23T22:13:36.673Z,93413.88
2023-04-23T22:16:13.483Z,93412.31
2023-04-23T22:18:49.053Z,93417.41
2023-04-23T22:21:16.936Z,93421.19
2023-04-23T22:23:44.972Z,93423.34
2023-04-23T22:26:13.217Z,93409.44
2023-04-23T22:28:43.308Z,93410.84
2023-04-23T22:31:11.998Z,93402.78
2023-04-23T22:33:39.843Z,93408.31
2023-04-23T22:36:08.144Z,93419.50
2023-04-23T22:38:36.541Z,93412.50
2023-04-23T22:41:04.592Z,93408.06
2023-04-23T22:43:34.976Z,93406.34
2023-04-23T22:46:03.066Z,93407.56
2023-04-23T22:48:31.040Z,93409.50
2023-04-23T22:50:59.388Z,93412.59
2023-04-23T22:53:27.139Z,93400.75
2023-04-23T22:55:55.971Z,93421.69
2023-04-23T22:58:23.791Z,93404.19
2023-04-23T23:00:51.657Z,93421.25
2023-04-23T23:03:19.579Z,93416.19
2023-04-23T23:05:47.759Z,93412.81
2023-04-23T23:08:15.579Z,93403.53
2023-04-23T23:10:43.562Z,93404.63
2023-04-23T23:13:11.681Z,93395.28
2023-04-23T23:15:39.567Z,93402.47
2023-04-23T23:18:07.979Z,93398.09
2023-04-23T23:20:35.928Z,93392.94
2023-04-23T23:23:03.940Z,93401.03
2023-04-23T23:25:31.994Z,93395.38
2023-04-23T23:27:59.794Z,93392.09
2023-04-23T23:30:27.718Z,93382.94
2023-04-23T23:32:56.998Z,93384.84
2023-04-23T23:35:25.024Z,93395.28
2023-04-23T23:37:53.068Z,93399.06
2023-04-23T23:40:21.067Z,93396.56
2023-04-23T23:42:48.923Z,93402.22
2023-04-23T23:45:17.042Z,93390.19
2023-04-23T23:47:46.193Z,93371.81
2023-04-23T23:50:14.546Z,93384.16
2023-04-23T23:52:42.344Z,93375.47
2023-04-23T23:55:11.050Z,93380.41
2023-04-23T23:57:38.925Z,93370.41
